Terminal Aerodrome Forecast
Issued by NWS

Home | Current Version | Previous Version | Text Only | Print | Product List | Glossary On
Versions: 1 2 3 4 5 6 7 8 9 10 11 12 13 14 15 16 17
898
FTUS43 KSGF 270330 AAB
TAFJLN
TAF AMD
KJLN 270330Z 2704/2724 12006KT P6SM VCSH BKN060
      TEMPO 2704/2707 5SM TSRA BR BKN050CB
     FM270700 08005KT P6SM SCT120
     FM271600 14007KT P6SM FEW150=

USA.gov is the U.S. government's official web portal to all federal, state and local government web resources and services.